KTAD/TAD METAR and TAF weather

Enter ICAO airport designator
Station Type Date Time Source
KTAD METAR 2020/02/24 07:54 UTC NOAA

KTAD 240754Z AUTO 26009KT 10SM CLR M02/M03 A2992 RMK AO2 SLP118 T10171033


Station Type Date Time Source
KTAD Decoded METAR 2020/02/24 07:54 UTC NOAA

Trinidad, Perry Stokes Airport, CO, United States (KTAD) 37-16N 104-26W
Feb 24, 2020 - 02:54 AM EST / 2020.02.24 0754 UTC
Wind: from the W (260 degrees) at 10 MPH (9 KT):0
Visibility: 10 mile(s):0
Sky conditions: clear
Temperature: 28.9 F (-1.7 C)
Windchill: 19 F (-7 C):1
Dew Point: 26.1 F (-3.3 C)
Relative Humidity: 88%
Pressure (altimeter): 29.92 in. Hg (1013 hPa)
ob: KTAD 240754Z AUTO 26009KT 10SM CLR M02/M03 A2992 RMK AO2 SLP118 T10171033
cycle: 8

Station Type Date Time Source
KTAD TAF UTC NOAA

Error!

Example: see airport list